sensor_id;sensor_type;location;lat;lon;timestamp;P1;durP1;ratioP1;P2;durP2;ratioP2
54123;SDS011;55741;53.252;5.788;2024-02-26T00:02:36;14.27;;;8.75;;
54123;SDS011;55741;53.252;5.788;2024-02-26T00:05:16;13.10;;;8.23;;
54123;SDS011;55741;53.252;5.788;2024-02-26T00:07:54;14.82;;;9.07;;
54123;SDS011;55741;53.252;5.788;2024-02-26T00:10:35;12.18;;;8.02;;
54123;SDS011;55741;53.252;5.788;2024-02-26T00:13:14;12.75;;;7.47;;
54123;SDS011;55741;53.252;5.788;2024-02-26T00:15:53;10.63;;;7.13;;
54123;SDS011;55741;53.252;5.788;2024-02-26T00:18:33;9.50;;;6.70;;
54123;SDS011;55741;53.252;5.788;2024-02-26T00:21:11;12.10;;;7.07;;
54123;SDS011;55741;53.252;5.788;2024-02-26T00:23:50;9.45;;;6.85;;
54123;SDS011;55741;53.252;5.788;2024-02-26T00:26:28;10.38;;;6.18;;
54123;SDS011;55741;53.252;5.788;2024-02-26T00:29:07;10.43;;;6.93;;
54123;SDS011;55741;53.252;5.788;2024-02-26T00:31:45;10.60;;;6.15;;
54123;SDS011;55741;53.252;5.788;2024-02-26T00:34:24;7.43;;;5.72;;
54123;SDS011;55741;53.252;5.788;2024-02-26T00:37:03;9.55;;;5.40;;
54123;SDS011;55741;53.252;5.788;2024-02-26T00:39:42;6.18;;;4.78;;
54123;SDS011;55741;53.252;5.788;2024-02-26T00:42:20;12.43;;;6.07;;
54123;SDS011;55741;53.252;5.788;2024-02-26T00:45:00;11.43;;;4.80;;
54123;SDS011;55741;53.252;5.788;2024-02-26T00:47:38;5.47;;;4.07;;
54123;SDS011;55741;53.252;5.788;2024-02-26T00:50:18;6.47;;;4.55;;
54123;SDS011;55741;53.252;5.788;2024-02-26T00:52:57;6.50;;;4.45;;
54123;SDS011;55741;53.252;5.788;2024-02-26T00:55:37;8.48;;;4.80;;
54123;SDS011;55741;53.252;5.788;2024-02-26T00:58:15;7.97;;;4.95;;
54123;SDS011;55741;53.252;5.788;2024-02-26T01:00:54;9.98;;;4.93;;
54123;SDS011;55741;53.252;5.788;2024-02-26T01:03:33;8.18;;;4.88;;
54123;SDS011;55741;53.252;5.788;2024-02-26T01:06:11;6.40;;;4.78;;
54123;SDS011;55741;53.252;5.788;2024-02-26T01:08:50;6.38;;;4.50;;
54123;SDS011;55741;53.252;5.788;2024-02-26T01:11:29;5.80;;;4.22;;
54123;SDS011;55741;53.252;5.788;2024-02-26T01:14:09;5.55;;;4.30;;
54123;SDS011;55741;53.252;5.788;2024-02-26T01:16:48;7.13;;;4.03;;
54123;SDS011;55741;53.252;5.788;2024-02-26T01:19:26;8.20;;;4.85;;
54123;SDS011;55741;53.252;5.788;2024-02-26T01:24:43;7.65;;;5.13;;
54123;SDS011;55741;53.252;5.788;2024-02-26T01:27:22;7.55;;;5.38;;
54123;SDS011;55741;53.252;5.788;2024-02-26T01:30:05;7.95;;;5.05;;
54123;SDS011;55741;53.252;5.788;2024-02-26T01:32:45;5.93;;;4.90;;
54123;SDS011;55741;53.252;5.788;2024-02-26T01:35:24;9.88;;;4.97;;
54123;SDS011;55741;53.252;5.788;2024-02-26T01:38:04;7.43;;;5.38;;
54123;SDS011;55741;53.252;5.788;2024-02-26T01:40:42;6.13;;;4.32;;
54123;SDS011;55741;53.252;5.788;2024-02-26T01:43:21;6.05;;;4.68;;
54123;SDS011;55741;53.252;5.788;2024-02-26T01:46:04;14.13;;;4.35;;
54123;SDS011;55741;53.252;5.788;2024-02-26T01:48:44;8.38;;;3.97;;
54123;SDS011;55741;53.252;5.788;2024-02-26T01:51:25;6.88;;;4.53;;
54123;SDS011;55741;53.252;5.788;2024-02-26T01:54:03;7.70;;;4.13;;
54123;SDS011;55741;53.252;5.788;2024-02-26T01:56:42;8.02;;;4.57;;
54123;SDS011;55741;53.252;5.788;2024-02-26T01:59:22;6.65;;;4.00;;
54123;SDS011;55741;53.252;5.788;2024-02-26T02:02:05;9.40;;;4.30;;
54123;SDS011;55741;53.252;5.788;2024-02-26T02:04:46;6.57;;;3.63;;
54123;SDS011;55741;53.252;5.788;2024-02-26T02:07:26;7.22;;;4.15;;
54123;SDS011;55741;53.252;5.788;2024-02-26T02:10:07;11.25;;;4.05;;
54123;SDS011;55741;53.252;5.788;2024-02-26T02:12:47;8.73;;;4.68;;
54123;SDS011;55741;53.252;5.788;2024-02-26T02:15:25;7.03;;;3.90;;
54123;SDS011;55741;53.252;5.788;2024-02-26T02:18:04;5.30;;;3.63;;
54123;SDS011;55741;53.252;5.788;2024-02-26T02:20:44;6.05;;;3.92;;
54123;SDS011;55741;53.252;5.788;2024-02-26T02:23:22;6.97;;;4.25;;
54123;SDS011;55741;53.252;5.788;2024-02-26T02:26:04;9.73;;;4.07;;
54123;SDS011;55741;53.252;5.788;2024-02-26T02:28:46;6.10;;;3.47;;
54123;SDS011;55741;53.252;5.788;2024-02-26T02:31:26;6.15;;;3.60;;
54123;SDS011;55741;53.252;5.788;2024-02-26T02:34:08;5.32;;;3.50;;
54123;SDS011;55741;53.252;5.788;2024-02-26T02:36:52;5.40;;;4.13;;
54123;SDS011;55741;53.252;5.788;2024-02-26T02:39:34;7.13;;;4.38;;
54123;SDS011;55741;53.252;5.788;2024-02-26T02:42:12;6.28;;;3.90;;
54123;SDS011;55741;53.252;5.788;2024-02-26T02:44:51;8.45;;;3.60;;
54123;SDS011;55741;53.252;5.788;2024-02-26T02:47:31;6.30;;;3.85;;
54123;SDS011;55741;53.252;5.788;2024-02-26T02:50:13;8.57;;;4.22;;
54123;SDS011;55741;53.252;5.788;2024-02-26T02:52:52;6.50;;;3.60;;
54123;SDS011;55741;53.252;5.788;2024-02-26T02:55:32;6.47;;;3.50;;
54123;SDS011;55741;53.252;5.788;2024-02-26T02:58:11;10.98;;;4.20;;
54123;SDS011;55741;53.252;5.788;2024-02-26T03:00:51;6.55;;;3.80;;
54123;SDS011;55741;53.252;5.788;2024-02-26T03:03:33;7.03;;;3.50;;
54123;SDS011;55741;53.252;5.788;2024-02-26T03:06:11;10.35;;;3.83;;
54123;SDS011;55741;53.252;5.788;2024-02-26T03:08:50;9.10;;;3.53;;
54123;SDS011;55741;53.252;5.788;2024-02-26T03:11:29;7.20;;;3.75;;
54123;SDS011;55741;53.252;5.788;2024-02-26T03:14:12;7.50;;;3.45;;
54123;SDS011;55741;53.252;5.788;2024-02-26T03:16:54;6.00;;;3.40;;
54123;SDS011;55741;53.252;5.788;2024-02-26T03:19:32;8.40;;;3.45;;
54123;SDS011;55741;53.252;5.788;2024-02-26T03:22:13;9.85;;;4.18;;
54123;SDS011;55741;53.252;5.788;2024-02-26T03:24:53;7.93;;;4.10;;
54123;SDS011;55741;53.252;5.788;2024-02-26T03:27:33;8.43;;;3.90;;
54123;SDS011;55741;53.252;5.788;2024-02-26T03:30:11;5.60;;;3.20;;
54123;SDS011;55741;53.252;5.788;2024-02-26T03:32:51;7.32;;;4.00;;
54123;SDS011;55741;53.252;5.788;2024-02-26T03:35:33;5.93;;;3.13;;
54123;SDS011;55741;53.252;5.788;2024-02-26T03:38:12;8.80;;;3.10;;
54123;SDS011;55741;53.252;5.788;2024-02-26T03:40:51;5.85;;;3.33;;
54123;SDS011;55741;53.252;5.788;2024-02-26T03:43:32;8.50;;;3.35;;
54123;SDS011;55741;53.252;5.788;2024-02-26T03:46:12;6.88;;;2.92;;
54123;SDS011;55741;53.252;5.788;2024-02-26T03:48:51;10.73;;;3.30;;
54123;SDS011;55741;53.252;5.788;2024-02-26T03:51:29;7.93;;;3.42;;
54123;SDS011;55741;53.252;5.788;2024-02-26T03:54:09;4.93;;;2.75;;
54123;SDS011;55741;53.252;5.788;2024-02-26T03:56:49;5.05;;;3.08;;
54123;SDS011;55741;53.252;5.788;2024-02-26T03:59:28;7.10;;;3.50;;
54123;SDS011;55741;53.252;5.788;2024-02-26T04:02:06;9.00;;;3.58;;
54123;SDS011;55741;53.252;5.788;2024-02-26T04:04:46;5.07;;;3.92;;
54123;SDS011;55741;53.252;5.788;2024-02-26T04:07:30;5.28;;;3.70;;
54123;SDS011;55741;53.252;5.788;2024-02-26T04:10:12;6.18;;;4.22;;
54123;SDS011;55741;53.252;5.788;2024-02-26T04:12:50;6.22;;;4.82;;
54123;SDS011;55741;53.252;5.788;2024-02-26T04:15:29;8.25;;;4.65;;
54123;SDS011;55741;53.252;5.788;2024-02-26T04:18:08;9.38;;;5.15;;
54123;SDS011;55741;53.252;5.788;2024-02-26T04:20:46;11.70;;;5.43;;
54123;SDS011;55741;53.252;5.788;2024-02-26T04:23:27;8.27;;;5.32;;
54123;SDS011;55741;53.252;5.788;2024-02-26T04:26:08;12.50;;;5.80;;
54123;SDS011;55741;53.252;5.788;2024-02-26T04:28:47;9.65;;;5.97;;
54123;SDS011;55741;53.252;5.788;2024-02-26T04:31:27;8.35;;;5.78;;
54123;SDS011;55741;53.252;5.788;2024-02-26T04:34:08;8.65;;;5.57;;
54123;SDS011;55741;53.252;5.788;2024-02-26T04:36:47;25.88;;;7.55;;
54123;SDS011;55741;53.252;5.788;2024-02-26T04:39:26;7.80;;;5.88;;
54123;SDS011;55741;53.252;5.788;2024-02-26T04:42:06;9.05;;;5.60;;
54123;SDS011;55741;53.252;5.788;2024-02-26T04:44:47;9.90;;;6.47;;
54123;SDS011;55741;53.252;5.788;2024-02-26T04:47:28;10.95;;;5.90;;
54123;SDS011;55741;53.252;5.788;2024-02-26T04:50:08;7.72;;;5.95;;
54123;SDS011;55741;53.252;5.788;2024-02-26T04:52:48;10.98;;;6.70;;
54123;SDS011;55741;53.252;5.788;2024-02-26T04:55:27;8.63;;;5.47;;
54123;SDS011;55741;53.252;5.788;2024-02-26T04:58:05;9.35;;;5.00;;
54123;SDS011;55741;53.252;5.788;2024-02-26T05:00:44;7.13;;;5.55;;
54123;SDS011;55741;53.252;5.788;2024-02-26T05:08:41;12.85;;;6.97;;
54123;SDS011;55741;53.252;5.788;2024-02-26T05:11:21;9.20;;;5.80;;
54123;SDS011;55741;53.252;5.788;2024-02-26T05:14:01;11.05;;;5.90;;
54123;SDS011;55741;53.252;5.788;2024-02-26T05:16:41;8.00;;;5.00;;
54123;SDS011;55741;53.252;5.788;2024-02-26T05:19:20;10.50;;;4.25;;
54123;SDS011;55741;53.252;5.788;2024-02-26T05:21:58;5.93;;;4.00;;
54123;SDS011;55741;53.252;5.788;2024-02-26T05:24:37;6.50;;;3.63;;
54123;SDS011;55741;53.252;5.788;2024-02-26T05:27:17;5.03;;;3.15;;
54123;SDS011;55741;53.252;5.788;2024-02-26T05:29:56;6.55;;;3.40;;
54123;SDS011;55741;53.252;5.788;2024-02-26T05:32:34;9.15;;;3.50;;
54123;SDS011;55741;53.252;5.788;2024-02-26T05:35:14;6.05;;;3.08;;
54123;SDS011;55741;53.252;5.788;2024-02-26T05:37:52;8.85;;;2.83;;
54123;SDS011;55741;53.252;5.788;2024-02-26T05:40:32;5.10;;;3.00;;
54123;SDS011;55741;53.252;5.788;2024-02-26T05:43:11;5.55;;;3.35;;
54123;SDS011;55741;53.252;5.788;2024-02-26T05:45:51;8.20;;;3.22;;
54123;SDS011;55741;53.252;5.788;2024-02-26T05:48:31;5.32;;;3.08;;
54123;SDS011;55741;53.252;5.788;2024-02-26T05:51:10;5.80;;;3.78;;
54123;SDS011;55741;53.252;5.788;2024-02-26T05:53:48;5.60;;;2.97;;
54123;SDS011;55741;53.252;5.788;2024-02-26T05:56:33;8.05;;;2.50;;
54123;SDS011;55741;53.252;5.788;2024-02-26T05:59:12;5.47;;;2.75;;
54123;SDS011;55741;53.252;5.788;2024-02-26T06:01:50;3.40;;;2.58;;
54123;SDS011;55741;53.252;5.788;2024-02-26T06:04:34;4.47;;;2.72;;
54123;SDS011;55741;53.252;5.788;2024-02-26T06:07:13;8.65;;;3.00;;
54123;SDS011;55741;53.252;5.788;2024-02-26T06:09:51;5.40;;;2.60;;
54123;SDS011;55741;53.252;5.788;2024-02-26T06:12:31;7.70;;;3.08;;
54123;SDS011;55741;53.252;5.788;2024-02-26T06:15:14;5.38;;;2.60;;
54123;SDS011;55741;53.252;5.788;2024-02-26T06:17:58;6.45;;;2.42;;
54123;SDS011;55741;53.252;5.788;2024-02-26T06:20:39;5.07;;;2.10;;
54123;SDS011;55741;53.252;5.788;2024-02-26T06:23:19;5.13;;;1.85;;
54123;SDS011;55741;53.252;5.788;2024-02-26T06:25:59;9.32;;;2.17;;
54123;SDS011;55741;53.252;5.788;2024-02-26T06:28:37;7.80;;;3.03;;
54123;SDS011;55741;53.252;5.788;2024-02-26T06:31:17;4.60;;;1.98;;
54123;SDS011;55741;53.252;5.788;2024-02-26T06:33:56;4.22;;;1.80;;
54123;SDS011;55741;53.252;5.788;2024-02-26T06:36:35;8.70;;;2.00;;
54123;SDS011;55741;53.252;5.788;2024-02-26T06:39:15;4.72;;;2.08;;
54123;SDS011;55741;53.252;5.788;2024-02-26T06:41:55;7.82;;;2.42;;
54123;SDS011;55741;53.252;5.788;2024-02-26T06:44:38;6.82;;;2.35;;
54123;SDS011;55741;53.252;5.788;2024-02-26T06:47:18;4.85;;;1.90;;
54123;SDS011;55741;53.252;5.788;2024-02-26T06:49:57;4.85;;;2.17;;
54123;SDS011;55741;53.252;5.788;2024-02-26T06:52:37;6.15;;;1.95;;
54123;SDS011;55741;53.252;5.788;2024-02-26T06:55:15;4.40;;;2.00;;
54123;SDS011;55741;53.252;5.788;2024-02-26T06:57:54;7.25;;;2.00;;
54123;SDS011;55741;53.252;5.788;2024-02-26T07:00:32;5.03;;;2.03;;
54123;SDS011;55741;53.252;5.788;2024-02-26T07:03:11;5.07;;;2.22;;
54123;SDS011;55741;53.252;5.788;2024-02-26T07:05:53;7.28;;;2.40;;
54123;SDS011;55741;53.252;5.788;2024-02-26T07:08:39;5.60;;;3.00;;
54123;SDS011;55741;53.252;5.788;2024-02-26T07:11:18;7.68;;;2.67;;
54123;SDS011;55741;53.252;5.788;2024-02-26T07:16:38;6.32;;;2.83;;
54123;SDS011;55741;53.252;5.788;2024-02-26T07:19:17;4.00;;;2.50;;
54123;SDS011;55741;53.252;5.788;2024-02-26T07:21:56;6.15;;;2.65;;
54123;SDS011;55741;53.252;5.788;2024-02-26T07:24:36;8.10;;;2.38;;
54123;SDS011;55741;53.252;5.788;2024-02-26T07:27:14;5.78;;;2.50;;
54123;SDS011;55741;53.252;5.788;2024-02-26T07:29:57;6.30;;;2.60;;
54123;SDS011;55741;53.252;5.788;2024-02-26T07:32:36;5.15;;;2.22;;
54123;SDS011;55741;53.252;5.788;2024-02-26T07:35:18;7.07;;;2.58;;
54123;SDS011;55741;53.252;5.788;2024-02-26T07:37:56;8.73;;;2.80;;
54123;SDS011;55741;53.252;5.788;2024-02-26T07:40:39;8.25;;;3.53;;
54123;SDS011;55741;53.252;5.788;2024-02-26T07:43:17;7.50;;;2.70;;
54123;SDS011;55741;53.252;5.788;2024-02-26T07:45:58;5.32;;;2.70;;
54123;SDS011;55741;53.252;5.788;2024-02-26T07:48:38;9.52;;;3.35;;
54123;SDS011;55741;53.252;5.788;2024-02-26T07:51:16;7.60;;;3.17;;
54123;SDS011;55741;53.252;5.788;2024-02-26T07:53:56;7.20;;;2.95;;
54123;SDS011;55741;53.252;5.788;2024-02-26T07:56:44;6.78;;;3.10;;
54123;SDS011;55741;53.252;5.788;2024-02-26T07:59:21;9.20;;;3.60;;
54123;SDS011;55741;53.252;5.788;2024-02-26T08:02:03;8.80;;;3.17;;
54123;SDS011;55741;53.252;5.788;2024-02-26T08:04:43;7.25;;;3.50;;
54123;SDS011;55741;53.252;5.788;2024-02-26T08:07:21;9.52;;;3.38;;
54123;SDS011;55741;53.252;5.788;2024-02-26T08:10:04;11.20;;;3.38;;
54123;SDS011;55741;53.252;5.788;2024-02-26T08:12:42;10.02;;;3.40;;
54123;SDS011;55741;53.252;5.788;2024-02-26T08:15:21;6.07;;;3.47;;
54123;SDS011;55741;53.252;5.788;2024-02-26T08:18:03;7.40;;;3.40;;
54123;SDS011;55741;53.252;5.788;2024-02-26T08:20:41;10.07;;;3.95;;
54123;SDS011;55741;53.252;5.788;2024-02-26T08:23:23;9.27;;;3.60;;
54123;SDS011;55741;53.252;5.788;2024-02-26T08:26:05;5.97;;;3.72;;
54123;SDS011;55741;53.252;5.788;2024-02-26T08:28:45;8.48;;;3.65;;
54123;SDS011;55741;53.252;5.788;2024-02-26T08:31:25;8.52;;;4.13;;
54123;SDS011;55741;53.252;5.788;2024-02-26T08:34:05;12.20;;;3.17;;
54123;SDS011;55741;53.252;5.788;2024-02-26T08:36:45;6.25;;;3.20;;
54123;SDS011;55741;53.252;5.788;2024-02-26T08:39:25;7.55;;;3.30;;
54123;SDS011;55741;53.252;5.788;2024-02-26T08:42:07;8.25;;;3.40;;
54123;SDS011;55741;53.252;5.788;2024-02-26T08:44:46;10.02;;;3.45;;
54123;SDS011;55741;53.252;5.788;2024-02-26T08:47:25;9.07;;;3.90;;
54123;SDS011;55741;53.252;5.788;2024-02-26T08:50:05;7.35;;;3.33;;
54123;SDS011;55741;53.252;5.788;2024-02-26T08:52:45;10.77;;;3.70;;
54123;SDS011;55741;53.252;5.788;2024-02-26T08:55:30;7.35;;;2.92;;
54123;SDS011;55741;53.252;5.788;2024-02-26T09:00:47;7.30;;;2.75;;
54123;SDS011;55741;53.252;5.788;2024-02-26T09:03:26;9.35;;;3.08;;
54123;SDS011;55741;53.252;5.788;2024-02-26T09:06:06;7.45;;;2.90;;
54123;SDS011;55741;53.252;5.788;2024-02-26T09:14:03;9.20;;;2.70;;
54123;SDS011;55741;53.252;5.788;2024-02-26T09:16:44;9.80;;;2.95;;
54123;SDS011;55741;53.252;5.788;2024-02-26T09:19:25;5.00;;;2.78;;
54123;SDS011;55741;53.252;5.788;2024-02-26T09:22:07;8.30;;;2.90;;
54123;SDS011;55741;53.252;5.788;2024-02-26T09:24:47;7.35;;;3.05;;
54123;SDS011;55741;53.252;5.788;2024-02-26T09:30:12;9.48;;;2.47;;
54123;SDS011;55741;53.252;5.788;2024-02-26T09:35:29;10.23;;;2.67;;
54123;SDS011;55741;53.252;5.788;2024-02-26T09:38:08;8.27;;;2.42;;
54123;SDS011;55741;53.252;5.788;2024-02-26T09:43:26;8.32;;;2.53;;
54123;SDS011;55741;53.252;5.788;2024-02-26T09:46:11;4.13;;;2.35;;
54123;SDS011;55741;53.252;5.788;2024-02-26T09:48:50;8.43;;;2.50;;
54123;SDS011;55741;53.252;5.788;2024-02-26T09:51:28;5.40;;;2.65;;
54123;SDS011;55741;53.252;5.788;2024-02-26T09:54:07;9.60;;;2.60;;
54123;SDS011;55741;53.252;5.788;2024-02-26T09:56:47;7.75;;;2.55;;
54123;SDS011;55741;53.252;5.788;2024-02-26T09:59:29;8.20;;;2.28;;
54123;SDS011;55741;53.252;5.788;2024-02-26T10:02:14;9.05;;;2.58;;
54123;SDS011;55741;53.252;5.788;2024-02-26T10:04:54;7.55;;;3.00;;
54123;SDS011;55741;53.252;5.788;2024-02-26T10:10:15;15.60;;;3.85;;
54123;SDS011;55741;53.252;5.788;2024-02-26T10:12:55;6.60;;;2.50;;
54123;SDS011;55741;53.252;5.788;2024-02-26T10:15:41;6.20;;;2.67;;
54123;SDS011;55741;53.252;5.788;2024-02-26T10:21:04;9.40;;;2.90;;
54123;SDS011;55741;53.252;5.788;2024-02-26T10:23:43;6.20;;;2.80;;
54123;SDS011;55741;53.252;5.788;2024-02-26T10:26:24;6.63;;;2.38;;
54123;SDS011;55741;53.252;5.788;2024-02-26T10:37:07;8.50;;;2.88;;
54123;SDS011;55741;53.252;5.788;2024-02-26T10:39:47;5.88;;;2.72;;
54123;SDS011;55741;53.252;5.788;2024-02-26T10:45:06;7.45;;;3.25;;
54123;SDS011;55741;53.252;5.788;2024-02-26T10:47:47;7.13;;;3.28;;
54123;SDS011;55741;53.252;5.788;2024-02-26T10:53:25;6.70;;;3.50;;
54123;SDS011;55741;53.252;5.788;2024-02-26T11:54:56;12.73;;;3.75;;
54123;SDS011;55741;53.252;5.788;2024-02-26T12:56:37;12.98;;;3.95;;
54123;SDS011;55741;53.252;5.788;2024-02-26T13:36:32;7.28;;;2.78;;
54123;SDS011;55741;53.252;5.788;2024-02-26T13:39:11;7.50;;;2.95;;
54123;SDS011;55741;53.252;5.788;2024-02-26T13:42:04;9.65;;;3.33;;
54123;SDS011;55741;53.252;5.788;2024-02-26T13:47:22;8.43;;;2.70;;
54123;SDS011;55741;53.252;5.788;2024-02-26T13:52:41;7.70;;;2.60;;
54123;SDS011;55741;53.252;5.788;2024-02-26T13:58:03;4.95;;;2.25;;
54123;SDS011;55741;53.252;5.788;2024-02-26T14:00:43;9.65;;;2.47;;
54123;SDS011;55741;53.252;5.788;2024-02-26T14:03:22;11.63;;;2.72;;
54123;SDS011;55741;53.252;5.788;2024-02-26T14:06:02;7.65;;;2.42;;
54123;SDS011;55741;53.252;5.788;2024-02-26T14:08:42;10.20;;;2.25;;
54123;SDS011;55741;53.252;5.788;2024-02-26T14:11:21;7.53;;;2.28;;
54123;SDS011;55741;53.252;5.788;2024-02-26T14:14:01;5.63;;;2.25;;
54123;SDS011;55741;53.252;5.788;2024-02-26T14:19:18;4.82;;;1.92;;
54123;SDS011;55741;53.252;5.788;2024-02-26T14:21:58;4.97;;;1.67;;
54123;SDS011;55741;53.252;5.788;2024-02-26T14:27:18;8.07;;;2.47;;
54123;SDS011;55741;53.252;5.788;2024-02-26T14:32:38;4.43;;;1.38;;
54123;SDS011;55741;53.252;5.788;2024-02-26T14:35:16;5.57;;;1.60;;
54123;SDS011;55741;53.252;5.788;2024-02-26T14:37:55;6.68;;;1.85;;
54123;SDS011;55741;53.252;5.788;2024-02-26T14:40:39;7.25;;;1.80;;
54123;SDS011;55741;53.252;5.788;2024-02-26T14:43:18;8.52;;;1.88;;
54123;SDS011;55741;53.252;5.788;2024-02-26T14:45:57;9.45;;;1.77;;
54123;SDS011;55741;53.252;5.788;2024-02-26T14:48:37;4.35;;;1.67;;
54123;SDS011;55741;53.252;5.788;2024-02-26T14:51:16;4.90;;;1.55;;
54123;SDS011;55741;53.252;5.788;2024-02-26T14:53:54;6.65;;;1.60;;
54123;SDS011;55741;53.252;5.788;2024-02-26T14:56:33;6.90;;;1.20;;
54123;SDS011;55741;53.252;5.788;2024-02-26T14:59:11;6.25;;;1.38;;
54123;SDS011;55741;53.252;5.788;2024-02-26T15:04:30;6.72;;;1.40;;
54123;SDS011;55741;53.252;5.788;2024-02-26T15:07:09;6.15;;;1.10;;
54123;SDS011;55741;53.252;5.788;2024-02-26T15:09:49;4.53;;;1.05;;
54123;SDS011;55741;53.252;5.788;2024-02-26T15:12:28;3.67;;;1.15;;
54123;SDS011;55741;53.252;5.788;2024-02-26T15:39:03;3.45;;;1.13;;
54123;SDS011;55741;53.252;5.788;2024-02-26T16:27:03;5.30;;;2.20;;
54123;SDS011;55741;53.252;5.788;2024-02-26T16:43:00;5.95;;;1.48;;
54123;SDS011;55741;53.252;5.788;2024-02-26T16:45:39;6.20;;;2.10;;
54123;SDS011;55741;53.252;5.788;2024-02-26T16:50:56;6.43;;;2.55;;
54123;SDS011;55741;53.252;5.788;2024-02-26T16:53:35;4.60;;;2.00;;
54123;SDS011;55741;53.252;5.788;2024-02-26T16:58:52;8.93;;;2.50;;
54123;SDS011;55741;53.252;5.788;2024-02-26T17:04:13;7.68;;;2.20;;
54123;SDS011;55741;53.252;5.788;2024-02-26T17:06:55;12.10;;;2.00;;
54123;SDS011;55741;53.252;5.788;2024-02-26T17:09:34;4.25;;;2.50;;
54123;SDS011;55741;53.252;5.788;2024-02-26T17:20:11;7.78;;;1.85;;
54123;SDS011;55741;53.252;5.788;2024-02-26T17:25:29;4.28;;;1.80;;
54123;SDS011;55741;53.252;5.788;2024-02-26T17:28:08;5.78;;;2.22;;
54123;SDS011;55741;53.252;5.788;2024-02-26T17:30:49;6.82;;;2.58;;
54123;SDS011;55741;53.252;5.788;2024-02-26T17:33:28;7.60;;;2.70;;
54123;SDS011;55741;53.252;5.788;2024-02-26T17:36:06;5.25;;;1.85;;
54123;SDS011;55741;53.252;5.788;2024-02-26T17:38:48;7.47;;;2.75;;
54123;SDS011;55741;53.252;5.788;2024-02-26T17:41:27;7.55;;;3.08;;
54123;SDS011;55741;53.252;5.788;2024-02-26T17:44:06;8.68;;;3.25;;
54123;SDS011;55741;53.252;5.788;2024-02-26T17:46:46;9.43;;;3.08;;
54123;SDS011;55741;53.252;5.788;2024-02-26T17:49:25;6.20;;;2.28;;
54123;SDS011;55741;53.252;5.788;2024-02-26T17:52:07;6.55;;;1.88;;
54123;SDS011;55741;53.252;5.788;2024-02-26T17:54:48;5.20;;;2.17;;
54123;SDS011;55741;53.252;5.788;2024-02-26T17:57:26;7.20;;;2.08;;
54123;SDS011;55741;53.252;5.788;2024-02-26T18:00:05;4.97;;;1.25;;
54123;SDS011;55741;53.252;5.788;2024-02-26T18:02:45;6.15;;;1.33;;
54123;SDS011;55741;53.252;5.788;2024-02-26T18:05:24;4.18;;;1.15;;
54123;SDS011;55741;53.252;5.788;2024-02-26T18:08:06;3.38;;;1.20;;
54123;SDS011;55741;53.252;5.788;2024-02-26T18:10:45;4.18;;;1.45;;
54123;SDS011;55741;53.252;5.788;2024-02-26T18:13:23;4.30;;;1.70;;
54123;SDS011;55741;53.252;5.788;2024-02-26T18:16:04;5.60;;;2.20;;
54123;SDS011;55741;53.252;5.788;2024-02-26T18:18:42;5.13;;;1.85;;
54123;SDS011;55741;53.252;5.788;2024-02-26T18:21:26;6.40;;;3.70;;
54123;SDS011;55741;53.252;5.788;2024-02-26T18:24:07;5.03;;;1.88;;
54123;SDS011;55741;53.252;5.788;2024-02-26T18:26:45;5.13;;;1.60;;
54123;SDS011;55741;53.252;5.788;2024-02-26T18:29:28;3.88;;;1.50;;
54123;SDS011;55741;53.252;5.788;2024-02-26T18:32:09;4.38;;;1.25;;
54123;SDS011;55741;53.252;5.788;2024-02-26T18:34:49;4.75;;;2.05;;
54123;SDS011;55741;53.252;5.788;2024-02-26T18:37:29;5.47;;;2.00;;
54123;SDS011;55741;53.252;5.788;2024-02-26T18:40:07;8.45;;;1.92;;
54123;SDS011;55741;53.252;5.788;2024-02-26T18:42:48;8.70;;;1.90;;
54123;SDS011;55741;53.252;5.788;2024-02-26T18:45:27;8.95;;;1.63;;
54123;SDS011;55741;53.252;5.788;2024-02-26T18:48:08;9.27;;;1.67;;
54123;SDS011;55741;53.252;5.788;2024-02-26T18:50:48;4.22;;;1.83;;
54123;SDS011;55741;53.252;5.788;2024-02-26T18:53:27;8.75;;;1.98;;
54123;SDS011;55741;53.252;5.788;2024-02-26T18:56:07;7.50;;;1.30;;
54123;SDS011;55741;53.252;5.788;2024-02-26T18:58:46;5.07;;;1.30;;
54123;SDS011;55741;53.252;5.788;2024-02-26T19:01:25;6.30;;;1.30;;
54123;SDS011;55741;53.252;5.788;2024-02-26T19:04:03;4.95;;;1.40;;
54123;SDS011;55741;53.252;5.788;2024-02-26T19:06:45;6.80;;;1.33;;
54123;SDS011;55741;53.252;5.788;2024-02-26T19:09:25;11.93;;;3.75;;
54123;SDS011;55741;53.252;5.788;2024-02-26T19:12:05;8.55;;;1.77;;
54123;SDS011;55741;53.252;5.788;2024-02-26T19:14:46;4.25;;;1.33;;
54123;SDS011;55741;53.252;5.788;2024-02-26T19:17:24;7.57;;;1.35;;
54123;SDS011;55741;53.252;5.788;2024-02-26T19:20:04;8.45;;;1.50;;
54123;SDS011;55741;53.252;5.788;2024-02-26T19:22:47;5.28;;;1.65;;
54123;SDS011;55741;53.252;5.788;2024-02-26T19:25:27;7.00;;;1.42;;
54123;SDS011;55741;53.252;5.788;2024-02-26T19:28:05;6.93;;;1.80;;
54123;SDS011;55741;53.252;5.788;2024-02-26T19:30:45;8.85;;;2.13;;
54123;SDS011;55741;53.252;5.788;2024-02-26T19:33:24;7.50;;;1.65;;
54123;SDS011;55741;53.252;5.788;2024-02-26T19:36:04;4.72;;;1.20;;
54123;SDS011;55741;53.252;5.788;2024-02-26T19:38:45;6.60;;;2.83;;
54123;SDS011;55741;53.252;5.788;2024-02-26T19:41:24;10.38;;;3.75;;
54123;SDS011;55741;53.252;5.788;2024-02-26T19:44:03;11.02;;;3.63;;
54123;SDS011;55741;53.252;5.788;2024-02-26T19:46:42;6.63;;;2.83;;
54123;SDS011;55741;53.252;5.788;2024-02-26T19:49:21;12.13;;;2.38;;
54123;SDS011;55741;53.252;5.788;2024-02-26T19:51:59;7.13;;;1.65;;
54123;SDS011;55741;53.252;5.788;2024-02-26T19:54:39;6.35;;;2.10;;
54123;SDS011;55741;53.252;5.788;2024-02-26T19:57:18;5.10;;;2.72;;
54123;SDS011;55741;53.252;5.788;2024-02-26T19:59:57;10.10;;;2.63;;
54123;SDS011;55741;53.252;5.788;2024-02-26T20:02:35;5.95;;;1.73;;
54123;SDS011;55741;53.252;5.788;2024-02-26T20:05:16;5.95;;;1.85;;
54123;SDS011;55741;53.252;5.788;2024-02-26T20:07:56;3.50;;;1.80;;
54123;SDS011;55741;53.252;5.788;2024-02-26T20:10:35;7.28;;;2.00;;
54123;SDS011;55741;53.252;5.788;2024-02-26T20:13:14;4.95;;;1.70;;
54123;SDS011;55741;53.252;5.788;2024-02-26T20:15:53;8.18;;;2.22;;
54123;SDS011;55741;53.252;5.788;2024-02-26T20:18:34;5.18;;;1.77;;
54123;SDS011;55741;53.252;5.788;2024-02-26T20:21:12;5.28;;;2.58;;
54123;SDS011;55741;53.252;5.788;2024-02-26T20:23:51;9.38;;;2.70;;
54123;SDS011;55741;53.252;5.788;2024-02-26T20:26:32;10.25;;;3.22;;
54123;SDS011;55741;53.252;5.788;2024-02-26T20:29:16;5.95;;;2.13;;
54123;SDS011;55741;53.252;5.788;2024-02-26T20:31:55;5.35;;;2.30;;
54123;SDS011;55741;53.252;5.788;2024-02-26T20:34:34;6.00;;;3.33;;
54123;SDS011;55741;53.252;5.788;2024-02-26T20:37:12;8.35;;;2.25;;
54123;SDS011;55741;53.252;5.788;2024-02-26T20:39:54;6.53;;;1.90;;
54123;SDS011;55741;53.252;5.788;2024-02-26T20:42:33;4.00;;;1.67;;
54123;SDS011;55741;53.252;5.788;2024-02-26T20:45:11;4.68;;;1.40;;
54123;SDS011;55741;53.252;5.788;2024-02-26T20:47:51;4.78;;;1.50;;
54123;SDS011;55741;53.252;5.788;2024-02-26T20:50:33;4.60;;;1.63;;
54123;SDS011;55741;53.252;5.788;2024-02-26T20:53:13;5.50;;;1.50;;
54123;SDS011;55741;53.252;5.788;2024-02-26T20:55:54;6.65;;;1.58;;
54123;SDS011;55741;53.252;5.788;2024-02-26T20:58:35;5.85;;;1.52;;
54123;SDS011;55741;53.252;5.788;2024-02-26T21:01:17;7.90;;;1.65;;
54123;SDS011;55741;53.252;5.788;2024-02-26T21:04:00;6.00;;;1.67;;
54123;SDS011;55741;53.252;5.788;2024-02-26T21:06:38;4.40;;;1.67;;
54123;SDS011;55741;53.252;5.788;2024-02-26T21:09:18;9.18;;;2.60;;
54123;SDS011;55741;53.252;5.788;2024-02-26T21:11:57;7.68;;;2.20;;
54123;SDS011;55741;53.252;5.788;2024-02-26T21:14:36;5.50;;;2.40;;
54123;SDS011;55741;53.252;5.788;2024-02-26T21:17:14;11.85;;;5.07;;
54123;SDS011;55741;53.252;5.788;2024-02-26T21:19:54;8.27;;;2.70;;
54123;SDS011;55741;53.252;5.788;2024-02-26T21:22:34;3.95;;;1.85;;